createdAt,value
2024-04-17T00:01:18.974Z,5.53
2024-04-17T00:03:46.775Z,4.70
2024-04-17T00:06:14.644Z,4.50
2024-04-17T00:08:41.920Z,4.47
2024-04-17T00:11:09.415Z,4.53
2024-04-17T00:13:37.939Z,4.07
2024-04-17T00:16:05.712Z,4.10
2024-04-17T00:18:33.058Z,4.57
2024-04-17T00:21:00.698Z,4.20
2024-04-17T00:23:28.616Z,4.15
2024-04-17T00:25:55.954Z,5.07
2024-04-17T00:28:26.710Z,5.10
2024-04-17T00:30:54.428Z,4.93
2024-04-17T00:33:22.171Z,4.05
2024-04-17T00:35:49.765Z,4.53
2024-04-17T00:38:17.258Z,5.50
2024-04-17T00:40:44.622Z,4.00
2024-04-17T00:43:12.052Z,4.63
2024-04-17T00:45:46.245Z,4.95
2024-04-17T00:48:14.938Z,5.07
2024-04-17T00:50:46.632Z,5.20
2024-04-17T00:53:18.656Z,4.97
2024-04-17T00:55:47.587Z,4.80
2024-04-17T00:58:16.244Z,4.82
2024-04-17T01:00:43.559Z,5.30
2024-04-17T01:03:11.213Z,4.20
2024-04-17T01:05:38.527Z,4.60
2024-04-17T01:08:07.819Z,4.28
2024-04-17T01:10:35.832Z,3.92
2024-04-17T01:13:03.503Z,4.05
2024-04-17T01:15:30.814Z,4.82
2024-04-17T01:18:00.249Z,5.03
2024-04-17T01:20:27.698Z,4.10
2024-04-17T01:22:54.944Z,4.57
2024-04-17T01:25:22.299Z,3.92
2024-04-17T01:27:49.436Z,4.82
2024-04-17T01:30:16.787Z,4.25
2024-04-17T01:32:44.330Z,5.18
2024-04-17T01:35:11.633Z,4.20
2024-04-17T01:37:38.808Z,5.10
2024-04-17T01:40:06.489Z,4.60
2024-04-17T01:42:33.794Z,4.68
2024-04-17T01:45:01.110Z,5.50
2024-04-17T01:47:31.472Z,4.32
2024-04-17T01:50:02.368Z,5.30
2024-04-17T01:52:31.387Z,4.90
2024-04-17T01:54:58.528Z,4.80
2024-04-17T01:57:25.652Z,6.20
2024-04-17T01:59:53.092Z,6.30
2024-04-17T02:02:20.284Z,5.28
2024-04-17T02:04:47.584Z,6.15
2024-04-17T02:07:14.864Z,6.10
2024-04-17T02:09:42.013Z,5.80
2024-04-17T02:12:09.549Z,5.28
2024-04-17T02:14:36.937Z,5.30
2024-04-17T02:17:04.267Z,5.95
2024-04-17T02:19:51.298Z,5.95
2024-04-17T02:22:18.566Z,5.18
2024-04-17T02:24:45.706Z,6.30
2024-04-17T02:27:12.934Z,5.65
2024-04-17T02:29:39.999Z,5.82
2024-04-17T02:32:08.495Z,6.53
2024-04-17T02:34:35.867Z,5.67
2024-04-17T02:37:03.162Z,6.18
2024-04-17T02:39:30.371Z,6.57
2024-04-17T02:41:57.613Z,6.38
2024-04-17T02:44:24.767Z,6.28
2024-04-17T02:46:52.203Z,5.97
2024-04-17T02:49:19.771Z,5.80
2024-04-17T02:51:47.470Z,6.57
2024-04-17T02:54:14.604Z,7.15
2024-04-17T02:56:42.050Z,5.78
2024-04-17T02:59:09.288Z,6.00
2024-04-17T03:01:36.566Z,7.18
2024-04-17T03:04:04.128Z,6.70
2024-04-17T03:06:31.301Z,6.53
2024-04-17T03:08:58.504Z,6.97
2024-04-17T03:11:25.774Z,6.50
2024-04-17T03:13:53.162Z,7.20
2024-04-17T03:16:20.553Z,6.80
2024-04-17T03:18:47.849Z,6.13
2024-04-17T03:21:15.085Z,6.93
2024-04-17T03:23:42.525Z,6.95
2024-04-17T03:26:09.755Z,6.55
2024-04-17T03:28:37.108Z,7.90
2024-04-17T03:31:04.482Z,6.53
2024-04-17T03:33:31.786Z,6.35
2024-04-17T03:36:00.417Z,7.30
2024-04-17T03:38:28.075Z,8.85
2024-04-17T03:40:56.603Z,7.60
2024-04-17T03:43:24.574Z,6.90
2024-04-17T03:45:52.096Z,7.32
2024-04-17T03:48:19.417Z,6.55
2024-04-17T03:50:46.832Z,7.28
2024-04-17T03:53:14.174Z,6.13
2024-04-17T03:55:41.476Z,6.55
2024-04-17T03:58:08.959Z,7.40
2024-04-17T04:00:36.253Z,6.65
2024-04-17T04:03:03.785Z,5.35
2024-04-17T04:05:31.028Z,4.82
2024-04-17T04:07:58.374Z,4.78
2024-04-17T04:10:25.725Z,5.13
2024-04-17T04:12:53.176Z,5.60
2024-04-17T04:15:20.363Z,4.57
2024-04-17T04:17:47.705Z,3.67
2024-04-17T04:20:15.166Z,4.65
2024-04-17T04:22:42.586Z,3.72
2024-04-17T04:25:09.904Z,4.10
2024-04-17T04:27:37.196Z,4.15
2024-04-17T04:30:04.784Z,4.30
2024-04-17T04:32:32.420Z,4.28
2024-04-17T04:34:59.817Z,3.75
2024-04-17T04:37:27.555Z,3.42
2024-04-17T04:39:54.927Z,3.88
2024-04-17T04:42:22.134Z,4.35
2024-04-17T04:44:50.062Z,5.10
2024-04-17T04:47:17.396Z,3.88
2024-04-17T04:49:46.549Z,4.55
2024-04-17T04:52:13.997Z,11.25
2024-04-17T04:54:41.375Z,5.30
2024-04-17T04:57:08.653Z,8.52
2024-04-17T04:59:36.420Z,6.55
2024-04-17T05:02:04.662Z,3.42
2024-04-17T05:04:32.002Z,4.43
2024-04-17T05:06:59.325Z,5.93
2024-04-17T05:09:28.297Z,3.78
2024-04-17T05:11:55.916Z,3.83
2024-04-17T05:14:23.372Z,3.60
2024-04-17T05:16:50.905Z,3.35
2024-04-17T05:19:18.317Z,3.75
2024-04-17T05:21:45.691Z,3.88
2024-04-17T05:24:13.188Z,4.18
2024-04-17T05:26:40.544Z,4.90
2024-04-17T05:29:07.834Z,3.88
2024-04-17T05:31:35.153Z,4.90
2024-04-17T05:34:02.658Z,5.07
2024-04-17T05:36:30.005Z,5.07
2024-04-17T05:38:57.203Z,3.75
2024-04-17T05:41:24.496Z,4.32
2024-04-17T05:43:51.865Z,4.00
2024-04-17T05:46:19.258Z,4.35
2024-04-17T05:48:46.867Z,3.38
2024-04-17T05:51:14.031Z,3.53
2024-04-17T05:53:41.332Z,3.92
2024-04-17T05:56:08.776Z,4.97
2024-04-17T05:58:36.006Z,4.05
2024-04-17T06:01:03.369Z,4.72
2024-04-17T06:03:30.678Z,3.60
2024-04-17T06:05:58.099Z,3.80
2024-04-17T06:08:25.379Z,4.05
2024-04-17T06:10:52.931Z,4.38
2024-04-17T06:13:20.312Z,3.60
2024-04-17T06:15:48.658Z,3.78
2024-04-17T06:18:16.113Z,4.65
2024-04-17T06:20:43.563Z,5.22
2024-04-17T06:23:11.152Z,4.78
2024-04-17T06:25:43.047Z,5.00
2024-04-17T06:28:10.447Z,4.07
2024-04-17T06:30:38.114Z,5.75
2024-04-17T06:33:05.752Z,5.38
2024-04-17T06:35:34.342Z,5.78
2024-04-17T06:38:02.242Z,6.43
2024-04-17T06:40:29.634Z,6.70
2024-04-17T06:42:57.237Z,5.72
2024-04-17T06:45:24.530Z,5.07
2024-04-17T06:47:51.970Z,4.75
2024-04-17T06:50:19.269Z,4.45
2024-04-17T06:52:46.579Z,3.88
2024-04-17T06:55:14.196Z,3.70
2024-04-17T06:57:41.507Z,4.20
2024-04-17T07:00:11.187Z,4.40
2024-04-17T07:02:45.993Z,4.72
2024-04-17T07:05:16.897Z,2.72
2024-04-17T07:07:44.166Z,3.80
2024-04-17T07:10:11.942Z,2.05
2024-04-17T07:12:40.420Z,2.53
2024-04-17T07:15:07.749Z,2.10
2024-04-17T07:17:35.005Z,2.00
2024-04-17T07:20:02.571Z,1.80
2024-04-17T07:22:31.464Z,2.30
2024-04-17T07:24:58.960Z,1.40
2024-04-17T07:27:26.256Z,1.70
2024-04-17T07:29:53.504Z,2.25
2024-04-17T07:32:21.459Z,1.80
2024-04-17T07:34:48.827Z,1.70
2024-04-17T07:37:16.632Z,1.40
2024-04-17T07:39:43.871Z,1.33
2024-04-17T07:42:11.181Z,1.13
2024-04-17T07:44:38.495Z,1.10
2024-04-17T07:47:06.151Z,1.98
2024-04-17T07:49:33.714Z,1.35
2024-04-17T07:52:00.874Z,1.02
2024-04-17T07:54:28.315Z,1.23
2024-04-17T07:56:56.763Z,1.40
2024-04-17T07:59:24.090Z,1.60
2024-04-17T08:01:51.355Z,1.58
2024-04-17T08:04:18.698Z,1.90
2024-04-17T08:06:45.940Z,2.35
2024-04-17T08:09:13.279Z,1.30
2024-04-17T08:11:41.148Z,1.60
2024-04-17T08:14:08.696Z,1.10
2024-04-17T08:16:36.180Z,1.40
2024-04-17T08:19:03.634Z,1.15
2024-04-17T08:21:30.781Z,1.60
2024-04-17T08:23:58.457Z,1.45
2024-04-17T08:26:25.851Z,1.35
2024-04-17T08:28:53.363Z,1.73
2024-04-17T08:31:20.586Z,1.83
2024-04-17T08:33:48.018Z,1.73
2024-04-17T08:36:15.345Z,1.40
2024-04-17T08:38:42.702Z,1.92
2024-04-17T08:41:10.037Z,1.15
2024-04-17T08:43:38.724Z,1.50
2024-04-17T08:46:07.407Z,1.20
2024-04-17T08:48:35.137Z,1.13
2024-04-17T08:51:03.949Z,1.55
2024-04-17T08:53:33.258Z,1.85
2024-04-17T08:56:00.638Z,2.10
2024-04-17T08:58:28.124Z,1.40
2024-04-17T09:00:57.108Z,1.75
2024-04-17T09:03:26.002Z,2.13
2024-04-17T09:05:57.106Z,0.95
2024-04-17T09:08:26.627Z,1.88
2024-04-17T09:10:56.344Z,1.60
2024-04-17T09:13:23.883Z,1.10
2024-04-17T09:15:51.955Z,1.13
2024-04-17T09:18:28.337Z,1.00
2024-04-17T09:20:57.057Z,1.30
2024-04-17T09:23:25.345Z,1.30
2024-04-17T09:25:56.063Z,2.38
2024-04-17T09:28:24.421Z,1.60
2024-04-17T09:30:51.892Z,1.83
2024-04-17T09:33:19.232Z,1.60
2024-04-17T09:35:46.651Z,2.00
2024-04-17T09:38:17.442Z,1.55
2024-04-17T09:40:45.976Z,1.60
2024-04-17T09:43:29.006Z,1.40
2024-04-17T09:46:07.727Z,1.70
2024-04-17T09:48:42.541Z,1.73
2024-04-17T09:51:12.581Z,1.90
2024-04-17T09:53:54.759Z,1.70
2024-04-17T09:56:23.687Z,1.70
2024-04-17T09:58:59.549Z,2.20
2024-04-17T10:01:32.778Z,1.52
2024-04-17T10:04:01.582Z,2.27
2024-04-17T10:06:30.635Z,2.33
2024-04-17T10:09:00.211Z,2.72
2024-04-17T10:11:28.378Z,2.40
2024-04-17T10:13:56.632Z,1.75
2024-04-17T10:16:24.221Z,2.20
2024-04-17T10:18:52.435Z,2.35
2024-04-17T10:21:22.905Z,3.17
2024-04-17T10:24:12.806Z,2.20
2024-04-17T10:26:48.151Z,2.60
2024-04-17T10:29:24.250Z,3.20
2024-04-17T10:31:57.779Z,2.83
2024-04-17T10:34:27.700Z,2.95
2024-04-17T10:36:59.589Z,2.33
2024-04-17T10:39:28.326Z,3.50
2024-04-17T10:41:55.940Z,2.70
2024-04-17T10:44:23.753Z,2.60
2024-04-17T10:47:02.176Z,2.80
2024-04-17T10:49:29.711Z,3.53
2024-04-17T10:51:57.086Z,2.28
2024-04-17T10:54:25.028Z,2.45
2024-04-17T10:56:52.416Z,2.80
2024-04-17T10:59:26.995Z,2.80
2024-04-17T11:01:54.309Z,2.63
2024-04-17T11:04:21.699Z,2.58
2024-04-17T11:06:50.670Z,3.45
2024-04-17T11:09:18.525Z,3.08
2024-04-17T11:11:49.565Z,3.30
2024-04-17T11:14:17.302Z,3.58
2024-04-17T11:16:47.804Z,3.00
2024-04-17T11:19:16.166Z,2.60
2024-04-17T11:21:47.234Z,2.30
2024-04-17T11:24:19.612Z,2.40
2024-04-17T11:26:47.634Z,2.13
2024-04-17T11:29:26.512Z,2.38
2024-04-17T11:32:01.406Z,2.67
2024-04-17T11:34:28.711Z,2.10
2024-04-17T11:37:05.228Z,1.98
2024-04-17T11:39:38.039Z,2.25
2024-04-17T11:42:08.469Z,1.92
2024-04-17T11:44:40.818Z,1.80
2024-04-17T11:47:16.533Z,2.20
2024-04-17T11:49:44.733Z,1.58
2024-04-17T11:52:14.343Z,1.60
2024-04-17T11:54:42.255Z,1.58
2024-04-17T11:57:13.490Z,1.83
2024-04-17T11:59:43.656Z,1.30
2024-04-17T12:02:10.928Z,1.60
2024-04-17T12:04:38.607Z,1.50
2024-04-17T12:07:06.010Z,1.70
2024-04-17T12:09:33.301Z,1.30
2024-04-17T12:12:00.721Z,1.48
2024-04-17T12:14:27.971Z,1.25
2024-04-17T12:16:57.504Z,1.38
2024-04-17T12:19:24.904Z,1.73
2024-04-17T12:21:52.111Z,1.60
2024-04-17T12:24:21.205Z,1.65
2024-04-17T12:26:52.634Z,1.30
2024-04-17T12:29:21.490Z,1.35
2024-04-17T12:31:49.863Z,1.55
2024-04-17T12:34:17.578Z,1.30
2024-04-17T12:36:44.997Z,1.30
2024-04-17T12:39:13.478Z,1.25
2024-04-17T12:41:40.953Z,1.40
2024-04-17T12:44:08.395Z,1.60
2024-04-17T12:46:35.744Z,1.38
2024-04-17T12:49:03.103Z,1.02
2024-04-17T12:51:30.451Z,1.65
2024-04-17T12:53:57.656Z,1.40
2024-04-17T12:56:25.006Z,1.52
2024-04-17T12:58:52.464Z,1.30
2024-04-17T13:01:19.650Z,1.92
2024-04-17T13:03:47.064Z,1.85
2024-04-17T13:06:15.230Z,1.92
2024-04-17T13:08:42.901Z,1.38
2024-04-17T13:11:13.303Z,1.38
2024-04-17T13:13:42.692Z,1.40
2024-04-17T13:16:09.974Z,1.45
2024-04-17T13:18:39.050Z,1.40
2024-04-17T13:21:06.797Z,1.02
2024-04-17T13:23:35.342Z,1.20
2024-04-17T13:26:03.980Z,1.15
2024-04-17T13:28:35.494Z,1.60
2024-04-17T13:31:05.165Z,1.27
2024-04-17T13:33:35.653Z,1.55
2024-04-17T13:36:08.495Z,1.52
2024-04-17T13:38:35.846Z,1.17
2024-04-17T13:41:06.181Z,0.98
2024-04-17T13:43:37.911Z,1.20
2024-04-17T13:46:07.603Z,1.20
2024-04-17T13:51:04.140Z,1.10
2024-04-17T13:53:32.906Z,0.98
2024-04-17T13:56:00.427Z,1.23
2024-04-17T13:58:30.655Z,1.02
2024-04-17T14:00:58.126Z,1.27
2024-04-17T14:03:26.586Z,1.20
2024-04-17T14:05:54.518Z,0.95
2024-04-17T14:08:24.179Z,1.08
2024-04-17T14:10:52.543Z,1.40
2024-04-17T14:13:19.847Z,1.20
2024-04-17T14:15:47.246Z,1.10
2024-04-17T14:18:14.984Z,0.95
2024-04-17T14:20:42.606Z,1.67
2024-04-17T14:23:11.727Z,1.67
2024-04-17T14:28:07.532Z,1.10
2024-04-17T14:30:35.079Z,1.30
2024-04-17T14:33:02.761Z,1.02
2024-04-17T14:35:30.261Z,1.52
2024-04-17T14:37:57.642Z,1.50
2024-04-17T14:40:24.934Z,1.45
2024-04-17T14:42:52.100Z,1.38
2024-04-17T14:45:19.322Z,1.35
2024-04-17T14:47:46.806Z,1.20
2024-04-17T14:50:20.234Z,1.80
2024-04-17T14:52:49.253Z,2.50
2024-04-17T14:55:16.560Z,3.05
2024-04-17T14:57:44.792Z,1.83
2024-04-17T15:00:12.664Z,2.00
2024-04-17T15:02:40.090Z,1.73
2024-04-17T15:05:08.327Z,1.52
2024-04-17T15:07:35.579Z,1.70
2024-04-17T15:10:02.959Z,1.98
2024-04-17T15:12:30.678Z,1.92
2024-04-17T15:14:58.070Z,1.60
2024-04-17T15:17:25.796Z,1.50
2024-04-17T15:19:53.155Z,1.83
2024-04-17T15:22:20.454Z,1.70
2024-04-17T15:24:48.479Z,2.08
2024-04-17T15:27:15.919Z,5.65
2024-04-17T15:29:46.180Z,2.38
2024-04-17T15:32:13.424Z,2.33
2024-04-17T15:34:40.893Z,2.35
2024-04-17T15:37:09.985Z,2.30
2024-04-17T15:39:37.408Z,2.10
2024-04-17T15:42:04.932Z,1.95
2024-04-17T15:44:32.680Z,1.83
2024-04-17T15:47:00.106Z,1.73
2024-04-17T15:49:28.402Z,2.05
2024-04-17T15:51:57.304Z,1.90
2024-04-17T15:54:25.727Z,1.90
2024-04-17T15:56:53.168Z,2.27
2024-04-17T15:59:20.587Z,2.47
2024-04-17T16:01:50.139Z,2.35
2024-04-17T16:04:18.884Z,2.30
2024-04-17T16:06:46.752Z,2.10
2024-04-17T16:09:17.313Z,2.80
2024-04-17T16:11:44.895Z,2.40
2024-04-17T16:14:13.323Z,3.20
2024-04-17T16:16:40.907Z,4.25
2024-04-17T16:19:08.462Z,3.42
2024-04-17T16:21:36.232Z,2.90
2024-04-17T16:24:07.415Z,3.33
2024-04-17T16:26:35.097Z,7.10
2024-04-17T16:29:02.751Z,7.60
2024-04-17T16:31:34.442Z,4.53
2024-04-17T16:34:02.129Z,4.88
2024-04-17T16:36:29.672Z,3.10
2024-04-17T16:38:57.198Z,4.70
2024-04-17T16:41:24.674Z,4.18
2024-04-17T16:43:52.230Z,3.88
2024-04-17T16:46:19.833Z,10.13
2024-04-17T16:48:47.890Z,4.32
2024-04-17T16:51:16.031Z,3.03
2024-04-17T16:53:46.863Z,2.92
2024-04-17T16:56:14.536Z,3.92
2024-04-17T16:58:42.068Z,3.63
2024-04-17T17:01:14.059Z,3.45
2024-04-17T17:03:41.792Z,3.28
2024-04-17T17:06:09.719Z,3.65
2024-04-17T17:08:38.850Z,4.13
2024-04-17T17:11:07.352Z,4.53
2024-04-17T17:13:38.930Z,5.28
2024-04-17T17:16:07.262Z,5.60
2024-04-17T17:18:35.901Z,4.93
2024-04-17T17:21:10.061Z,5.80
2024-04-17T17:23:38.306Z,7.97
2024-04-17T17:26:13.474Z,14.93
2024-04-17T17:28:43.366Z,6.07
2024-04-17T17:31:10.983Z,6.22
2024-04-17T17:33:38.970Z,5.63
2024-04-17T17:36:08.133Z,5.65
2024-04-17T17:38:41.826Z,6.97
2024-04-17T17:41:17.642Z,7.03
2024-04-17T17:43:45.461Z,5.97
2024-04-17T17:46:21.652Z,5.40
2024-04-17T17:48:53.989Z,6.68
2024-04-17T17:51:25.007Z,4.97
2024-04-17T17:53:52.493Z,3.85
2024-04-17T17:56:23.558Z,4.32
2024-04-17T17:59:00.607Z,3.50
2024-04-17T18:01:34.035Z,3.80
2024-04-17T18:04:02.153Z,3.38
2024-04-17T18:06:30.332Z,3.33
2024-04-17T18:09:00.516Z,3.03
2024-04-17T18:11:28.871Z,2.70
2024-04-17T18:13:56.319Z,2.58
2024-04-17T18:16:29.716Z,2.55
2024-04-17T18:19:03.765Z,2.70
2024-04-17T18:21:32.304Z,2.45
2024-04-17T18:23:59.980Z,2.38
2024-04-17T18:26:29.915Z,2.28
2024-04-17T18:28:57.449Z,2.83
2024-04-17T18:31:24.880Z,2.65
2024-04-17T18:33:53.455Z,2.30
2024-04-17T18:36:24.032Z,2.28
2024-04-17T18:38:52.919Z,2.00
2024-04-17T18:41:25.412Z,1.90
2024-04-17T18:43:56.486Z,2.28
2024-04-17T18:46:26.597Z,2.22
2024-04-17T18:48:57.256Z,1.95
2024-04-17T18:51:24.977Z,2.50
2024-04-17T18:53:53.351Z,2.00
2024-04-17T18:56:26.864Z,2.03
2024-04-17T18:58:54.343Z,2.10
2024-04-17T19:01:22.681Z,2.05
2024-04-17T19:03:50.962Z,2.15
2024-04-17T19:06:20.043Z,2.03
2024-04-17T19:08:48.653Z,2.33
2024-04-17T19:11:16.867Z,3.33
2024-04-17T19:13:44.803Z,6.10
2024-04-17T19:16:22.031Z,8.65
2024-04-17T19:18:51.652Z,7.90
2024-04-17T19:21:19.542Z,9.25
2024-04-17T19:23:47.911Z,7.07
2024-04-17T19:26:15.976Z,5.30
2024-04-17T19:28:47.054Z,2.60
2024-04-17T19:31:15.069Z,3.20
2024-04-17T19:33:42.537Z,5.43
2024-04-17T19:36:14.443Z,6.22
2024-04-17T19:38:46.283Z,4.53
2024-04-17T19:41:13.790Z,3.70
2024-04-17T19:43:41.952Z,4.55
2024-04-17T19:46:10.546Z,5.25
2024-04-17T19:48:45.694Z,5.60
2024-04-17T19:51:15.999Z,5.20
2024-04-17T19:53:43.867Z,5.10
2024-04-17T19:56:14.785Z,6.82
2024-04-17T19:58:42.741Z,5.47
2024-04-17T20:01:11.075Z,5.10
2024-04-17T20:03:40.286Z,4.95
2024-04-17T20:06:09.011Z,4.22
2024-04-17T20:08:36.313Z,4.35
2024-04-17T20:11:04.331Z,4.05
2024-04-17T20:13:32.604Z,4.03
2024-04-17T20:16:03.801Z,4.47
2024-04-17T20:18:36.904Z,3.90
2024-04-17T20:21:07.213Z,4.35
2024-04-17T20:23:35.199Z,4.35
2024-04-17T20:26:07.646Z,3.95
2024-04-17T20:28:41.321Z,3.67
2024-04-17T20:31:15.636Z,3.42
2024-04-17T20:33:46.952Z,3.20
2024-04-17T20:36:18.021Z,3.40
2024-04-17T20:38:46.761Z,3.60
2024-04-17T20:41:14.811Z,3.10
2024-04-17T20:43:42.746Z,3.30
2024-04-17T20:46:12.072Z,2.83
2024-04-17T20:48:40.176Z,3.00
2024-04-17T20:51:08.452Z,3.07
2024-04-17T20:53:38.685Z,2.88
2024-04-17T20:56:10.058Z,3.03
2024-04-17T20:58:38.720Z,2.75
2024-04-17T21:01:08.898Z,2.83
2024-04-17T21:03:38.078Z,3.38
2024-04-17T21:06:10.555Z,3.30
2024-04-17T21:08:40.063Z,3.65
2024-04-17T21:11:09.345Z,3.58
2024-04-17T21:13:38.266Z,3.65
2024-04-17T21:16:20.969Z,4.30
2024-04-17T21:18:48.772Z,4.03
2024-04-17T21:21:16.041Z,4.18
2024-04-17T21:23:43.753Z,3.33
2024-04-17T21:26:15.907Z,3.45
2024-04-17T21:28:44.903Z,3.47
2024-04-17T21:31:18.963Z,3.67
2024-04-17T21:33:48.291Z,3.85
2024-04-17T21:38:44.258Z,3.20
2024-04-17T21:41:11.720Z,3.47
2024-04-17T21:43:39.545Z,3.50
2024-04-17T21:46:12.694Z,3.40
2024-04-17T21:48:43.040Z,3.75
2024-04-17T21:51:11.088Z,3.88
2024-04-17T21:53:41.276Z,3.58
2024-04-17T21:56:11.253Z,3.60
2024-04-17T21:58:39.128Z,4.18
2024-04-17T22:01:07.784Z,3.63
2024-04-17T22:03:35.892Z,3.05
2024-04-17T22:06:04.823Z,3.30
2024-04-17T22:08:32.829Z,2.72
2024-04-17T22:11:00.097Z,3.05
2024-04-17T22:13:27.589Z,2.95
2024-04-17T22:15:54.912Z,2.13
2024-04-17T22:18:22.499Z,2.30
2024-04-17T22:20:49.680Z,2.92
2024-04-17T22:23:17.067Z,2.65
2024-04-17T22:25:44.298Z,2.95
2024-04-17T22:28:11.738Z,2.40
2024-04-17T22:30:38.909Z,2.92
2024-04-17T22:33:06.293Z,2.80
2024-04-17T22:35:34.044Z,2.90
2024-04-17T22:38:01.269Z,2.72
2024-04-17T22:40:28.633Z,3.00
2024-04-17T22:42:57.459Z,2.88
2024-04-17T22:45:25.652Z,2.95
2024-04-17T22:47:53.069Z,2.67
2024-04-17T22:50:20.480Z,2.78
2024-04-17T22:52:47.696Z,2.95
2024-04-17T22:55:15.184Z,2.25
2024-04-17T22:57:42.438Z,2.22
2024-04-17T23:00:12.827Z,2.47
2024-04-17T23:02:40.366Z,2.72
2024-04-17T23:05:07.811Z,3.28
2024-04-17T23:07:35.102Z,2.65
2024-04-17T23:10:02.366Z,2.88
2024-04-17T23:12:31.007Z,2.85
2024-04-17T23:14:58.197Z,3.00
2024-04-17T23:17:25.492Z,2.97
2024-04-17T23:19:52.702Z,3.00
2024-04-17T23:22:20.130Z,2.75
2024-04-17T23:24:47.338Z,3.67
2024-04-17T23:27:14.762Z,3.15
2024-04-17T23:29:42.392Z,3.10
2024-04-17T23:32:09.655Z,3.38
2024-04-17T23:34:37.082Z,3.88
2024-04-17T23:37:04.469Z,3.33
2024-04-17T23:39:31.802Z,3.75
2024-04-17T23:41:59.274Z,3.00
2024-04-17T23:44:27.281Z,3.75
2024-04-17T23:46:54.870Z,3.72
2024-04-17T23:49:22.763Z,3.53
2024-04-17T23:51:50.253Z,3.90
2024-04-17T23:54:17.841Z,3.90
2024-04-17T23:56:45.124Z,3.72
2024-04-17T23:59:13.895Z,3.45
